Time;durP1;ratioP1;P1;durP2;ratioP2;P2;SDS_P1;SDS_P2;PMS_P1;PMS_P2;Temp;Humidity;BMP_temperature;BMP_pressure;BME280_temperature;BME280_humidity;BME280_pressure;Samples;Min_cycle;Max_cycle;Signal;HPM_P1;HPM_P2
2023/02/25 00:00:41;;;;;;;18.77;9.38;;;;;;;;;;4986137;28;20022;-54
2023/02/25 00:03:06;;;;;;;18.13;10.00;;;;;;;;;;4987145;28;20137;-53
2023/02/25 00:05:32;;;;;;;19.45;9.50;;;;;;;;;;4987644;28;20036;-54
2023/02/25 00:07:58;;;;;;;12.75;7.95;;;;;;;;;;5003610;28;20675;-59
2023/02/25 00:10:23;;;;;;;18.98;9.18;;;;;;;;;;4987145;28;20042;-52
2023/02/25 00:12:48;;;;;;;16.98;8.90;;;;;;;;;;4984247;28;21074;-52
2023/02/25 00:15:14;;;;;;;13.70;8.48;;;;;;;;;;4978397;28;20126;-53
2023/02/25 00:17:40;;;;;;;15.25;9.13;;;;;;;;;;4985564;28;20112;-54
2023/02/25 00:20:15;;;;;;;13.65;8.15;;;;;;;;;;4986369;28;20483;-53
2023/02/25 00:22:41;;;;;;;15.73;8.52;;;;;;;;;;4984935;28;20031;-52
2023/02/25 00:25:07;;;;;;;13.00;8.48;;;;;;;;;;4987817;28;20063;-56
2023/02/25 00:27:33;;;;;;;15.43;8.70;;;;;;;;;;4984238;28;20038;-49
2023/02/25 00:30:00;;;;;;;13.70;8.38;;;;;;;;;;4978151;28;20043;-53
2023/02/25 00:32:25;;;;;;;19.15;8.35;;;;;;;;;;4983312;28;20184;-50
2023/02/25 00:34:51;;;;;;;15.85;8.73;;;;;;;;;;4984344;28;20026;-49
2023/02/25 00:37:16;;;;;;;17.15;9.45;;;;;;;;;;4982072;28;20093;-47
2023/02/25 00:39:43;;;;;;;21.15;8.80;;;;;;;;;;4979903;28;20095;-56
2023/02/25 00:42:15;;;;;;;24.10;9.15;;;;;;;;;;4984543;28;20040;-47
2023/02/25 00:44:45;;;;;;;16.25;8.55;;;;;;;;;;4981494;28;20505;-51
2023/02/25 00:47:11;;;;;;;16.98;6.95;;;;;;;;;;4983420;28;20034;-55
2023/02/25 00:49:36;;;;;;;14.30;8.23;;;;;;;;;;4983250;28;20045;-52
2023/02/25 00:52:02;;;;;;;13.98;7.90;;;;;;;;;;4984698;28;20467;-55
2023/02/25 00:54:27;;;;;;;11.23;7.03;;;;;;;;;;4996673;28;20034;-49
2023/02/25 00:56:53;;;;;;;12.18;6.75;;;;;;;;;;4984543;28;20156;-48
2023/02/25 00:59:18;;;;;;;11.88;7.38;;;;;;;;;;4983163;28;20446;-53
2023/02/25 01:01:43;;;;;;;12.23;6.90;;;;;;;;;;4985086;28;20030;-46
2023/02/25 01:04:09;;;;;;;14.15;7.43;;;;;;;;;;4986275;28;20064;-53
2023/02/25 01:06:36;;;;;;;11.50;6.60;;;;;;;;;;4984945;28;20050;-55
2023/02/25 01:09:06;;;;;;;12.20;6.80;;;;;;;;;;4980675;28;20034;-52
2023/02/25 01:11:33;;;;;;;13.27;7.13;;;;;;;;;;4984003;28;20035;-55
2023/02/25 01:14:00;;;;;;;16.38;7.80;;;;;;;;;;4984716;28;20070;-54
2023/02/25 01:16:26;;;;;;;16.48;7.05;;;;;;;;;;4984527;28;20046;-47
2023/02/25 01:18:53;;;;;;;12.65;7.07;;;;;;;;;;4992888;28;20080;-51
2023/02/25 01:21:26;;;;;;;10.82;7.10;;;;;;;;;;4982191;28;20780;-51
2023/02/25 01:23:58;;;;;;;13.27;6.78;;;;;;;;;;4984505;28;20030;-49
2023/02/25 01:26:27;;;;;;;15.02;7.32;;;;;;;;;;4982456;28;20121;-53
2023/02/25 01:28:54;;;;;;;9.95;6.35;;;;;;;;;;4984905;28;20093;-53
2023/02/25 01:31:27;;;;;;;14.70;6.97;;;;;;;;;;4983811;28;20038;-48
2023/02/25 01:34:00;;;;;;;11.38;6.40;;;;;;;;;;4983475;28;20068;-51
2023/02/25 01:36:26;;;;;;;13.18;6.57;;;;;;;;;;4983125;28;20038;-52
2023/02/25 01:38:51;;;;;;;11.90;7.05;;;;;;;;;;4985800;28;20088;-55
2023/02/25 01:41:17;;;;;;;14.93;6.47;;;;;;;;;;4985080;28;20403;-55
2023/02/25 01:43:42;;;;;;;12.88;6.60;;;;;;;;;;4983990;28;20676;-49
2023/02/25 01:46:07;;;;;;;12.60;7.00;;;;;;;;;;4978133;28;20101;-57
2023/02/25 01:48:38;;;;;;;11.20;6.75;;;;;;;;;;4986665;28;20038;-54
2023/02/25 01:51:09;;;;;;;16.60;7.10;;;;;;;;;;4981037;28;20183;-50
2023/02/25 01:53:41;;;;;;;11.70;6.57;;;;;;;;;;4981808;28;20038;-48
2023/02/25 01:56:06;;;;;;;10.60;6.43;;;;;;;;;;4999363;28;20085;-48
2023/02/25 01:58:33;;;;;;;15.20;6.68;;;;;;;;;;4991302;28;20820;-53
2023/02/25 02:00:58;;;;;;;12.50;5.70;;;;;;;;;;4980661;28;20057;-54
2023/02/25 02:03:25;;;;;;;11.63;6.60;;;;;;;;;;4985843;28;20712;-56
2023/02/25 02:05:54;;;;;;;13.05;6.45;;;;;;;;;;4988833;28;20034;-53
2023/02/25 02:08:20;;;;;;;13.50;7.03;;;;;;;;;;4984104;28;20061;-54
2023/02/25 02:10:45;;;;;;;13.25;6.63;;;;;;;;;;4978263;28;20113;-54
2023/02/25 02:13:11;;;;;;;15.70;7.03;;;;;;;;;;4984238;28;20138;-50
2023/02/25 02:15:39;;;;;;;11.48;6.20;;;;;;;;;;4981866;28;20053;-50
2023/02/25 02:18:05;;;;;;;16.88;6.90;;;;;;;;;;4983627;28;20057;-54
2023/02/25 02:20:36;;;;;;;10.68;5.45;;;;;;;;;;4966990;28;20037;-49
2023/02/25 02:23:20;;;;;;;9.68;5.30;;;;;;;;;;5003497;28;20046;-51
2023/02/25 02:25:51;;;;;;;13.43;5.70;;;;;;;;;;4982656;28;20563;-51
2023/02/25 02:28:22;;;;;;;6.28;4.22;;;;;;;;;;4986740;28;20136;-51
2023/02/25 02:31:06;;;;;;;9.18;4.70;;;;;;;;;;4986122;28;20131;-55
2023/02/25 02:33:39;;;;;;;9.98;4.22;;;;;;;;;;4984739;28;20038;-50
2023/02/25 02:36:07;;;;;;;9.00;4.82;;;;;;;;;;4985564;28;20035;-50
2023/02/25 02:38:47;;;;;;;12.90;5.18;;;;;;;;;;4986665;28;20141;-57
2023/02/25 02:41:19;;;;;;;8.32;4.43;;;;;;;;;;4998732;28;20046;-56
2023/02/25 02:43:51;;;;;;;8.43;4.65;;;;;;;;;;4971344;28;20463;-51
2023/02/25 02:46:16;;;;;;;8.85;4.70;;;;;;;;;;5002663;28;20129;-51
2023/02/25 02:48:57;;;;;;;13.15;5.35;;;;;;;;;;4984270;28;20822;-49
2023/02/25 02:51:25;;;;;;;9.90;4.95;;;;;;;;;;4985869;28;20034;-50
2023/02/25 02:53:52;;;;;;;7.32;4.22;;;;;;;;;;4984993;28;20038;-54
2023/02/25 02:56:20;;;;;;;7.43;4.38;;;;;;;;;;4983559;28;20031;-48
2023/02/25 02:58:56;;;;;;;11.77;4.68;;;;;;;;;;4985034;28;20038;-49
2023/02/25 03:01:25;;;;;;;11.40;4.95;;;;;;;;;;4995593;28;20034;-47
2023/02/25 03:03:58;;;;;;;7.93;4.65;;;;;;;;;;5000123;28;20043;-52
2023/02/25 03:06:26;;;;;;;11.00;4.95;;;;;;;;;;4985930;28;20050;-52
2023/02/25 03:08:57;;;;;;;11.75;5.10;;;;;;;;;;4986525;28;20030;-54
2023/02/25 03:11:23;;;;;;;9.93;4.45;;;;;;;;;;4984277;28;20323;-54
2023/02/25 03:13:49;;;;;;;10.15;4.93;;;;;;;;;;4986628;28;20189;-50
2023/02/25 03:16:19;;;;;;;8.23;3.70;;;;;;;;;;4987943;28;20065;-50
2023/02/25 03:18:54;;;;;;;8.02;3.88;;;;;;;;;;4985236;28;20080;-48
2023/02/25 03:21:23;;;;;;;9.88;3.90;;;;;;;;;;4985905;28;20179;-52
2023/02/25 03:23:49;;;;;;;9.63;3.55;;;;;;;;;;4987259;28;20034;-45
2023/02/25 03:26:22;;;;;;;7.70;3.97;;;;;;;;;;4988184;28;20482;-47
2023/02/25 03:28:52;;;;;;;10.75;4.05;;;;;;;;;;4994670;28;20462;-52
2023/02/25 03:31:21;;;;;;;11.00;4.10;;;;;;;;;;4980245;28;20033;-52
2023/02/25 03:33:47;;;;;;;9.00;4.15;;;;;;;;;;4984830;28;20034;-46
2023/02/25 03:36:23;;;;;;;6.45;3.50;;;;;;;;;;4980004;28;20092;-45
2023/02/25 03:38:50;;;;;;;9.73;3.90;;;;;;;;;;4980760;28;20125;-55
2023/02/25 03:41:17;;;;;;;9.32;3.92;;;;;;;;;;4980937;28;20149;-54
2023/02/25 03:43:44;;;;;;;10.07;3.58;;;;;;;;;;4994454;28;20038;-51
2023/02/25 03:46:11;;;;;;;10.70;4.35;;;;;;;;;;4986915;28;20439;-51
2023/02/25 03:48:37;;;;;;;8.05;4.00;;;;;;;;;;4982676;28;20464;-55
2023/02/25 03:51:07;;;;;;;6.38;3.30;;;;;;;;;;4984741;28;20196;-49
2023/02/25 03:53:35;;;;;;;11.68;3.80;;;;;;;;;;4983027;28;20407;-47
2023/02/25 03:56:10;;;;;;;13.57;4.03;;;;;;;;;;4972513;28;20402;-52
2023/02/25 03:58:39;;;;;;;13.35;4.35;;;;;;;;;;4980520;28;20046;-49
2023/02/25 04:01:06;;;;;;;10.80;4.10;;;;;;;;;;4986701;28;20045;-52
2023/02/25 04:03:31;;;;;;;10.27;4.13;;;;;;;;;;4984035;28;20117;-50
2023/02/25 04:05:57;;;;;;;7.88;3.72;;;;;;;;;;4985515;28;20117;-52
2023/02/25 04:08:23;;;;;;;8.55;3.80;;;;;;;;;;4985371;28;20031;-52
2023/02/25 04:10:49;;;;;;;12.95;4.13;;;;;;;;;;4987687;28;20037;-53
2023/02/25 04:13:19;;;;;;;9.15;3.47;;;;;;;;;;4985768;28;20161;-49
2023/02/25 04:15:46;;;;;;;9.73;3.97;;;;;;;;;;4976561;28;20081;-50
2023/02/25 04:18:12;;;;;;;13.40;4.32;;;;;;;;;;4966138;28;20121;-53
2023/02/25 04:20:38;;;;;;;11.55;4.47;;;;;;;;;;4983513;28;20495;-51
2023/02/25 04:23:03;;;;;;;9.93;4.38;;;;;;;;;;4984454;28;20042;-51
2023/02/25 04:25:28;;;;;;;12.02;4.45;;;;;;;;;;4984089;28;20034;-53
2023/02/25 04:27:54;;;;;;;8.35;4.18;;;;;;;;;;4983560;28;20113;-58
2023/02/25 04:30:19;;;;;;;12.00;4.60;;;;;;;;;;4985086;28;20133;-57
2023/02/25 04:32:44;;;;;;;11.80;4.13;;;;;;;;;;4984307;28;20037;-53
2023/02/25 04:35:13;;;;;;;11.27;4.07;;;;;;;;;;4983010;28;20034;-48
2023/02/25 04:37:39;;;;;;;9.02;3.95;;;;;;;;;;4983340;28;20828;-52
2023/02/25 04:40:11;;;;;;;13.65;4.90;;;;;;;;;;4983116;28;20114;-48
2023/02/25 04:42:36;;;;;;;11.90;4.60;;;;;;;;;;4984125;28;20404;-52
2023/02/25 04:45:02;;;;;;;11.27;4.93;;;;;;;;;;4981321;28;20383;-51
2023/02/25 04:47:27;;;;;;;9.68;4.50;;;;;;;;;;4983110;28;20456;-56
2023/02/25 04:49:52;;;;;;;8.57;4.53;;;;;;;;;;4985319;28;20037;-55
2023/02/25 04:52:18;;;;;;;9.23;4.15;;;;;;;;;;4982590;28;20042;-50
2023/02/25 04:54:43;;;;;;;10.20;4.55;;;;;;;;;;4984575;28;20418;-50
2023/02/25 04:57:09;;;;;;;10.10;4.70;;;;;;;;;;4984725;28;20188;-51
2023/02/25 04:59:35;;;;;;;15.20;4.95;;;;;;;;;;4985089;28;20042;-51
2023/02/25 05:02:00;;;;;;;9.80;4.20;;;;;;;;;;4983978;28;20041;-49
2023/02/25 05:04:25;;;;;;;9.95;4.38;;;;;;;;;;4982753;28;20029;-53
2023/02/25 05:06:51;;;;;;;8.02;3.72;;;;;;;;;;4984583;28;20085;-57
2023/02/25 05:09:16;;;;;;;8.35;4.03;;;;;;;;;;4985139;28;20030;-51
2023/02/25 05:11:41;;;;;;;9.13;4.03;;;;;;;;;;4981563;28;20451;-58
2023/02/25 05:14:07;;;;;;;7.88;3.88;;;;;;;;;;4987121;28;20926;-51
2023/02/25 05:16:32;;;;;;;9.80;3.55;;;;;;;;;;4981990;28;20036;-52
2023/02/25 05:18:57;;;;;;;7.13;3.90;;;;;;;;;;4983686;28;20081;-49
2023/02/25 05:21:24;;;;;;;9.02;3.75;;;;;;;;;;4984518;28;20133;-50
2023/02/25 05:23:50;;;;;;;6.27;2.90;;;;;;;;;;4982079;28;20113;-49
2023/02/25 05:26:16;;;;;;;6.88;3.22;;;;;;;;;;4982978;28;20060;-46
2023/02/25 05:28:44;;;;;;;12.23;3.55;;;;;;;;;;4982643;28;20030;-47
2023/02/25 05:31:10;;;;;;;5.57;2.80;;;;;;;;;;4982832;28;20029;-52
2023/02/25 05:33:36;;;;;;;8.20;2.97;;;;;;;;;;4983192;28;20675;-51
2023/02/25 05:36:05;;;;;;;5.38;3.00;;;;;;;;;;4982506;28;20045;-50
2023/02/25 05:38:31;;;;;;;9.68;3.15;;;;;;;;;;4982068;28;20038;-54
2023/02/25 05:40:58;;;;;;;9.27;3.10;;;;;;;;;;4983558;28;20033;-59
2023/02/25 05:43:23;;;;;;;11.07;3.03;;;;;;;;;;4981379;28;20027;-47
2023/02/25 05:45:55;;;;;;;12.38;3.10;;;;;;;;;;4984314;28;20080;-51
2023/02/25 05:48:21;;;;;;;9.57;3.78;;;;;;;;;;4984660;28;20041;-56
2023/02/25 05:50:49;;;;;;;8.23;2.80;;;;;;;;;;4982586;28;20137;-52
2023/02/25 05:53:15;;;;;;;7.00;2.80;;;;;;;;;;4967576;28;20741;-50
2023/02/25 05:55:41;;;;;;;6.05;2.67;;;;;;;;;;4983642;28;20041;-49
2023/02/25 05:58:06;;;;;;;8.60;2.83;;;;;;;;;;4983113;28;20050;-53
2023/02/25 06:00:31;;;;;;;11.25;2.85;;;;;;;;;;4997722;28;20061;-53
2023/02/25 06:02:57;;;;;;;10.73;3.10;;;;;;;;;;4979797;28;20030;-55
2023/02/25 06:05:22;;;;;;;7.43;2.83;;;;;;;;;;4986046;28;20061;-55
2023/02/25 06:07:47;;;;;;;6.40;2.50;;;;;;;;;;4983578;28;20483;-56
2023/02/25 06:10:12;;;;;;;7.47;2.33;;;;;;;;;;4984162;28;20472;-48
2023/02/25 06:12:38;;;;;;;4.15;2.17;;;;;;;;;;4978400;28;20045;-48
2023/02/25 06:15:03;;;;;;;4.80;2.17;;;;;;;;;;4980187;28;20157;-52
2023/02/25 06:17:29;;;;;;;8.50;2.35;;;;;;;;;;4985650;28;20070;-51
2023/02/25 06:19:55;;;;;;;5.50;2.10;;;;;;;;;;4985051;28;20066;-49
2023/02/25 06:22:21;;;;;;;10.15;2.45;;;;;;;;;;4982074;28;20037;-56
2023/02/25 06:24:46;;;;;;;8.65;2.42;;;;;;;;;;4992183;28;20026;-52
2023/02/25 06:27:12;;;;;;;4.40;2.05;;;;;;;;;;4984782;28;20208;-50
2023/02/25 06:29:40;;;;;;;7.90;2.58;;;;;;;;;;4983161;28;20042;-49
2023/02/25 06:32:09;;;;;;;8.90;2.22;;;;;;;;;;4984921;28;20034;-51
2023/02/25 06:34:34;;;;;;;8.45;2.10;;;;;;;;;;4984009;28;20430;-48
2023/02/25 06:37:00;;;;;;;8.73;2.40;;;;;;;;;;4976809;28;20133;-52
2023/02/25 06:39:26;;;;;;;9.13;2.20;;;;;;;;;;4988096;28;20038;-48
2023/02/25 06:41:51;;;;;;;8.80;2.30;;;;;;;;;;4986025;28;20065;-48
2023/02/25 06:44:16;;;;;;;9.55;2.15;;;;;;;;;;4982393;28;20033;-52
2023/02/25 06:46:42;;;;;;;4.32;1.92;;;;;;;;;;4981944;28;20060;-49
2023/02/25 06:49:07;;;;;;;8.00;2.25;;;;;;;;;;4981381;28;20507;-50
2023/02/25 06:51:32;;;;;;;7.05;2.15;;;;;;;;;;4982503;28;20471;-55
2023/02/25 06:53:58;;;;;;;8.18;2.25;;;;;;;;;;4983637;28;20030;-52
2023/02/25 06:56:25;;;;;;;7.13;2.22;;;;;;;;;;4983347;28;20030;-50
2023/02/25 06:58:52;;;;;;;8.40;2.00;;;;;;;;;;4983388;28;20578;-51
2023/02/25 07:01:17;;;;;;;7.18;2.42;;;;;;;;;;4984423;28;20268;-49
2023/02/25 07:03:42;;;;;;;4.85;1.98;;;;;;;;;;4982617;28;20462;-48
2023/02/25 07:06:08;;;;;;;6.00;2.00;;;;;;;;;;4981730;28;20447;-48
2023/02/25 07:08:33;;;;;;;6.95;2.47;;;;;;;;;;4983728;28;20046;-48
2023/02/25 07:11:28;;;;;;;6.63;2.10;;;;;;;;;;4984960;28;20030;-54
2023/02/25 07:13:54;;;;;;;9.40;2.38;;;;;;;;;;4971524;28;21128;-55
2023/02/25 07:16:19;;;;;;;7.45;2.20;;;;;;;;;;4982959;28;20034;-52
2023/02/25 07:18:45;;;;;;;8.07;2.42;;;;;;;;;;4987764;28;20026;-51
2023/02/25 07:21:14;;;;;;;11.82;2.67;;;;;;;;;;4985462;28;20034;-50
2023/02/25 07:23:40;;;;;;;10.98;2.42;;;;;;;;;;4995285;28;20034;-50
2023/02/25 07:26:06;;;;;;;12.10;2.58;;;;;;;;;;4988444;28;20100;-55
2023/02/25 07:28:32;;;;;;;4.93;2.25;;;;;;;;;;4986937;28;20042;-53
2023/02/25 07:31:01;;;;;;;10.70;2.45;;;;;;;;;;4987497;28;20033;-50
2023/02/25 07:33:27;;;;;;;3.75;2.00;;;;;;;;;;4983498;28;20049;-47
2023/02/25 07:35:53;;;;;;;10.23;2.53;;;;;;;;;;4985503;28;20041;-52
2023/02/25 07:38:18;;;;;;;8.23;2.60;;;;;;;;;;4986146;28;20034;-51
2023/02/25 07:40:43;;;;;;;6.22;2.03;;;;;;;;;;4985618;28;20038;-56
2023/02/25 07:43:09;;;;;;;4.88;2.10;;;;;;;;;;4984603;28;20038;-49
2023/02/25 07:45:34;;;;;;;10.40;2.72;;;;;;;;;;4984241;28;20109;-48
2023/02/25 07:47:59;;;;;;;10.27;2.20;;;;;;;;;;4985068;28;20054;-55
2023/02/25 07:50:25;;;;;;;5.68;1.88;;;;;;;;;;4986124;28;20030;-51
2023/02/25 07:52:50;;;;;;;5.90;2.25;;;;;;;;;;4985118;28;20030;-52
2023/02/25 07:55:15;;;;;;;6.55;2.20;;;;;;;;;;4986271;28;20026;-51
2023/02/25 07:57:41;;;;;;;6.80;2.55;;;;;;;;;;4986756;28;20042;-50
2023/02/25 08:00:09;;;;;;;4.72;2.10;;;;;;;;;;4972757;28;20046;-56
2023/02/25 08:02:37;;;;;;;5.78;2.30;;;;;;;;;;4985938;28;20045;-47
2023/02/25 08:05:03;;;;;;;5.25;2.42;;;;;;;;;;4988935;28;20367;-51
2023/02/25 08:07:29;;;;;;;7.70;2.97;;;;;;;;;;4984291;28;20045;-57
2023/02/25 08:09:54;;;;;;;6.07;2.10;;;;;;;;;;4984574;28;20022;-54
2023/02/25 08:12:19;;;;;;;4.47;2.15;;;;;;;;;;4984310;28;20034;-47
2023/02/25 08:14:45;;;;;;;9.65;2.53;;;;;;;;;;4985873;28;20058;-52
2023/02/25 08:17:10;;;;;;;8.43;2.55;;;;;;;;;;4985655;28;20041;-50
2023/02/25 08:19:35;;;;;;;10.43;2.67;;;;;;;;;;4983500;28;20030;-54
2023/02/25 08:22:01;;;;;;;8.25;2.47;;;;;;;;;;4984967;28;20034;-53
2023/02/25 08:24:26;;;;;;;9.20;2.92;;;;;;;;;;4983280;28;20085;-50
2023/02/25 08:26:53;;;;;;;4.18;2.20;;;;;;;;;;4984677;28;20053;-51
2023/02/25 08:29:18;;;;;;;9.75;2.60;;;;;;;;;;4983228;28;20034;-59
2023/02/25 08:31:45;;;;;;;9.98;2.72;;;;;;;;;;4982381;28;20041;-51
2023/02/25 08:34:11;;;;;;;8.15;2.13;;;;;;;;;;4986120;28;20030;-53
2023/02/25 08:36:36;;;;;;;7.90;2.33;;;;;;;;;;4987942;28;20108;-51
2023/02/25 08:39:02;;;;;;;4.43;1.95;;;;;;;;;;4983757;28;20502;-49
2023/02/25 08:41:27;;;;;;;9.60;2.10;;;;;;;;;;4985369;28;20069;-54
2023/02/25 08:43:54;;;;;;;6.55;1.92;;;;;;;;;;4985207;28;20034;-52
2023/02/25 08:46:23;;;;;;;7.53;2.40;;;;;;;;;;4981202;28;20030;-56
2023/02/25 08:48:49;;;;;;;7.88;2.17;;;;;;;;;;4983418;28;20499;-51
2023/02/25 08:51:15;;;;;;;7.35;2.42;;;;;;;;;;4984695;28;20424;-53
2023/02/25 08:53:40;;;;;;;5.35;2.15;;;;;;;;;;4982640;28;20103;-55
2023/02/25 08:56:07;;;;;;;5.00;2.00;;;;;;;;;;4985031;28;20506;-49
2023/02/25 08:58:32;;;;;;;6.82;2.10;;;;;;;;;;4982266;28;20077;-51
2023/02/25 09:00:58;;;;;;;11.93;2.35;;;;;;;;;;4982227;28;20030;-55
2023/02/25 09:03:23;;;;;;;7.22;2.15;;;;;;;;;;4983862;28;20156;-49
2023/02/25 09:05:52;;;;;;;6.65;2.00;;;;;;;;;;4982379;28;20030;-56
2023/02/25 09:08:18;;;;;;;7.78;2.45;;;;;;;;;;4984717;28;20124;-57
2023/02/25 09:10:43;;;;;;;6.75;2.45;;;;;;;;;;4982501;28;20030;-49
2023/02/25 09:13:09;;;;;;;6.70;2.17;;;;;;;;;;4986129;28;20034;-51
2023/02/25 09:15:34;;;;;;;9.40;2.45;;;;;;;;;;4984726;28;20026;-51
2023/02/25 09:17:59;;;;;;;8.40;2.45;;;;;;;;;;4967053;28;20408;-56
2023/02/25 09:20:24;;;;;;;4.93;2.55;;;;;;;;;;4992210;28;20069;-49
2023/02/25 09:22:50;;;;;;;5.80;2.03;;;;;;;;;;4975813;28;20026;-58
2023/02/25 09:25:15;;;;;;;5.55;1.90;;;;;;;;;;4978085;28;20661;-55
2023/02/25 09:27:40;;;;;;;5.28;1.90;;;;;;;;;;4980702;28;20546;-51
2023/02/25 09:30:06;;;;;;;8.13;2.20;;;;;;;;;;4976434;28;20038;-51
2023/02/25 09:32:31;;;;;;;5.07;1.95;;;;;;;;;;4985051;28;20105;-49
2023/02/25 09:34:57;;;;;;;6.43;2.03;;;;;;;;;;4975441;28;20693;-50
2023/02/25 09:37:22;;;;;;;9.95;2.10;;;;;;;;;;4976711;28;20029;-53
2023/02/25 09:39:47;;;;;;;6.55;2.20;;;;;;;;;;4980143;28;20034;-49
2023/02/25 09:42:16;;;;;;;7.93;2.20;;;;;;;;;;4978568;28;20117;-57
2023/02/25 09:44:46;;;;;;;5.45;1.88;;;;;;;;;;4979916;28;20057;-56
2023/02/25 09:47:50;;;;;;;5.75;2.30;;;;;;;;;;4973327;28;20149;-54
2023/02/25 09:50:24;;;;;;;7.15;2.42;;;;;;;;;;4916628;28;20035;-52
2023/02/25 09:52:56;;;;;;;12.45;2.55;;;;;;;;;;4922260;29;20031;-54
2023/02/25 09:55:21;;;;;;;2.53;1.45;;;;;;;;;;4958886;28;20423;-51
2023/02/25 09:57:54;;;;;;;7.25;1.90;;;;;;;;;;4974929;28;20042;-56
2023/02/25 10:00:22;;;;;;;12.48;3.03;;;;;;;;;;4978184;28;20034;-49
2023/02/25 10:02:47;;;;;;;;;;;;;;;;;;4953422;28;20487;-59
2023/02/25 10:05:32;;;;;;;4.70;1.80;;;;;;;;;;4975553;28;19940;-55
2023/02/25 10:08:12;;;;;;;3.63;1.70;;;;;;;;;;4977037;28;20136;-56
2023/02/25 10:10:45;;;;;;;5.75;1.90;;;;;;;;;;4976667;28;20030;-53
2023/02/25 10:13:29;;;;;;;4.45;1.80;;;;;;;;;;4982090;28;20034;-54
2023/02/25 10:16:01;;;;;;;3.45;1.70;;;;;;;;;;4975995;28;20077;-50
2023/02/25 10:18:31;;;;;;;6.07;2.10;;;;;;;;;;4975670;28;20089;-54
2023/02/25 10:21:15;;;;;;;5.93;2.40;;;;;;;;;;4984281;28;20117;-48
2023/02/25 10:23:46;;;;;;;4.53;1.80;;;;;;;;;;4976010;28;20497;-53
2023/02/25 10:26:18;;;;;;;6.43;1.88;;;;;;;;;;4978447;28;20034;-57
2023/02/25 10:28:45;;;;;;;3.22;2.00;;;;;;;;;;4975676;28;20565;-55
2023/02/25 10:31:13;;;;;;;6.03;1.98;;;;;;;;;;4980401;28;20037;-50
2023/02/25 10:33:39;;;;;;;6.47;2.38;;;;;;;;;;4982479;28;20038;-61
2023/02/25 10:36:13;;;;;;;3.40;1.92;;;;;;;;;;4982791;28;20045;-52
2023/02/25 10:38:41;;;;;;;6.00;2.78;;;;;;;;;;4977864;28;20114;-50
2023/02/25 10:41:07;;;;;;;5.38;1.70;;;;;;;;;;4981845;28;20057;-52
2023/02/25 10:43:33;;;;;;;5.63;1.80;;;;;;;;;;4981740;28;20503;-55
2023/02/25 10:46:11;;;;;;;2.03;1.52;;;;;;;;;;4980051;28;20089;-55
2023/02/25 10:48:38;;;;;;;8.75;1.98;;;;;;;;;;4986764;28;20139;-57
2023/02/25 10:51:04;;;;;;;5.25;2.00;;;;;;;;;;4976422;28;20038;-50
2023/02/25 10:53:30;;;;;;;3.40;1.60;;;;;;;;;;4986473;28;20037;-52
2023/02/25 10:55:56;;;;;;;3.30;1.60;;;;;;;;;;4981460;28;20936;-51
2023/02/25 10:58:34;;;;;;;4.10;2.03;;;;;;;;;;4996028;28;20065;-53
2023/02/25 11:01:00;;;;;;;4.63;1.80;;;;;;;;;;4986434;28;20593;-54
2023/02/25 11:03:27;;;;;;;6.53;1.88;;;;;;;;;;4982175;28;20403;-53
2023/02/25 11:06:06;;;;;;;2.72;1.75;;;;;;;;;;4982255;28;20056;-61
2023/02/25 11:08:32;;;;;;;6.35;1.90;;;;;;;;;;4986750;28;20109;-53
2023/02/25 11:11:12;;;;;;;6.65;1.83;;;;;;;;;;4977808;28;20168;-51
2023/02/25 11:13:39;;;;;;;5.80;1.85;;;;;;;;;;4987260;28;20041;-54
2023/02/25 11:16:06;;;;;;;9.18;2.47;;;;;;;;;;4980797;28;20089;-56
2023/02/25 11:18:31;;;;;;;;;;;;;;;;;;4993698;28;20045;-56
2023/02/25 11:20:59;;;;;;;3.78;1.90;;;;;;;;;;4986756;28;19913;-53
2023/02/25 11:23:42;;;;;;;4.32;1.80;;;;;;;;;;4980415;28;20044;-50
2023/02/25 11:26:13;;;;;;;5.20;1.80;;;;;;;;;;4979952;28;20046;-53
2023/02/25 11:28:46;;;;;;;4.05;1.63;;;;;;;;;;4975309;28;20042;-51
2023/02/25 11:31:11;;;;;;;6.85;2.28;;;;;;;;;;4957816;28;20042;-56
2023/02/25 11:33:39;;;;;;;4.80;2.20;;;;;;;;;;4978526;28;20494;-54
2023/02/25 11:36:05;;;;;;;6.13;2.25;;;;;;;;;;4969910;28;20080;-48
2023/02/25 11:38:30;;;;;;;5.97;2.25;;;;;;;;;;4954018;28;20117;-54
2023/02/25 11:40:56;;;;;;;4.95;1.95;;;;;;;;;;4973749;28;20027;-53
2023/02/25 11:43:26;;;;;;;4.35;1.90;;;;;;;;;;4926222;28;20047;-50
2023/02/25 11:45:55;;;;;;;4.45;1.88;;;;;;;;;;4937681;28;20055;-55
2023/02/25 11:48:25;;;;;;;5.38;2.50;;;;;;;;;;4938281;28;20504;-53
2023/02/25 11:50:56;;;;;;;6.85;2.35;;;;;;;;;;4940694;28;20050;-48
2023/02/25 11:53:40;;;;;;;5.70;2.42;;;;;;;;;;4936801;28;20113;-58
2023/02/25 11:56:15;;;;;;;4.13;2.08;;;;;;;;;;4925169;28;20419;-52
2023/02/25 11:58:51;;;;;;;5.28;2.40;;;;;;;;;;4954931;28;20034;-56
2023/02/25 12:01:26;;;;;;;4.72;2.25;;;;;;;;;;4953582;28;20444;-51
2023/02/25 12:03:59;;;;;;;8.18;2.50;;;;;;;;;;4959565;28;20046;-56
2023/02/25 12:06:42;;;;;;;11.55;2.63;;;;;;;;;;4965062;28;20042;-59
2023/02/25 12:09:08;;;;;;;5.70;2.70;;;;;;;;;;4977007;28;20332;-55
2023/02/25 12:11:56;;;;;;;9.35;2.15;;;;;;;;;;4973246;28;20032;-56
2023/02/25 12:14:40;;;;;;;3.70;2.30;;;;;;;;;;4981626;28;20402;-53
2023/02/25 12:17:24;;;;;;;8.10;2.58;;;;;;;;;;4981609;28;20042;-51
2023/02/25 12:19:49;;;;;;;7.28;2.50;;;;;;;;;;4976308;28;20034;-53
2023/02/25 12:22:35;;;;;;;9.35;2.83;;;;;;;;;;4955268;28;20046;-59
2023/02/25 12:25:15;;;;;;;7.35;2.63;;;;;;;;;;4952314;28;20083;-53
2023/02/25 12:27:59;;;;;;;7.38;2.53;;;;;;;;;;4957931;28;20026;-54
2023/02/25 12:30:30;;;;;;;9.88;3.35;;;;;;;;;;4961780;28;20428;-50
2023/02/25 12:33:01;;;;;;;5.88;2.47;;;;;;;;;;4959385;28;20668;-56
2023/02/25 12:35:33;;;;;;;9.60;2.90;;;;;;;;;;4960071;28;20058;-55
2023/02/25 12:37:58;;;;;;;8.75;2.50;;;;;;;;;;4964265;28;20146;-53
2023/02/25 12:40:35;;;;;;;8.85;2.60;;;;;;;;;;4959277;28;20556;-50
2023/02/25 12:43:17;;;;;;;10.95;3.15;;;;;;;;;;4959553;28;20604;-59
2023/02/25 12:45:51;;;;;;;8.70;2.95;;;;;;;;;;4963954;28;20117;-51
2023/02/25 12:48:23;;;;;;;8.23;2.97;;;;;;;;;;4958598;28;20484;-53
2023/02/25 12:51:06;;;;;;;5.53;3.03;;;;;;;;;;4959674;28;20039;-55
2023/02/25 12:53:31;;;;;;;11.23;2.85;;;;;;;;;;4960771;28;20026;-53
2023/02/25 12:56:03;;;;;;;10.38;3.20;;;;;;;;;;4949926;28;20174;-56
2023/02/25 12:58:38;;;;;;;7.32;2.78;;;;;;;;;;4961524;28;20046;-53
2023/02/25 13:01:09;;;;;;;5.00;2.58;;;;;;;;;;4956971;28;20049;-55
2023/02/25 13:03:47;;;;;;;7.20;2.50;;;;;;;;;;4955404;28;20081;-55
2023/02/25 13:06:12;;;;;;;;;;;;;;;;;;4957121;28;20448;-51
2023/02/25 13:08:43;;;;;;;5.35;2.50;;;;;;;;;;4960030;28;20431;-57
2023/02/25 13:11:22;;;;;;;7.35;2.40;;;;;;;;;;4965063;28;20031;-55
2023/02/25 13:13:50;;;;;;;6.15;2.38;;;;;;;;;;4944518;28;20041;-54
2023/02/25 13:16:22;;;;;;;8.95;2.38;;;;;;;;;;4954481;28;20101;-55
2023/02/25 13:18:55;;;;;;;7.75;2.65;;;;;;;;;;4962165;28;20043;-56
2023/02/25 13:21:21;;;;;;;7.78;2.60;;;;;;;;;;4957659;28;20030;-61
2023/02/25 13:24:05;;;;;;;7.55;2.30;;;;;;;;;;4953940;28;20440;-54
2023/02/25 13:26:36;;;;;;;8.63;2.20;;;;;;;;;;4964320;28;20492;-56
2023/02/25 13:29:10;;;;;;;7.88;2.60;;;;;;;;;;4938843;28;20054;-54
2023/02/25 13:31:38;;;;;;;6.47;2.38;;;;;;;;;;4958141;28;20062;-52
2023/02/25 13:34:16;;;;;;;6.47;2.30;;;;;;;;;;4962312;28;20114;-55
2023/02/25 13:37:01;;;;;;;4.15;1.90;;;;;;;;;;4957176;28;20792;-52
2023/02/25 13:39:33;;;;;;;3.65;2.20;;;;;;;;;;4958702;28;20093;-56
2023/02/25 13:42:19;;;;;;;5.07;2.10;;;;;;;;;;4964184;28;20670;-57
2023/02/25 13:44:51;;;;;;;8.57;2.60;;;;;;;;;;4959385;28;20059;-53
2023/02/25 13:47:22;;;;;;;4.82;2.10;;;;;;;;;;4957544;28;20062;-56
2023/02/25 13:50:06;;;;;;;4.90;2.35;;;;;;;;;;4960488;28;20026;-62
2023/02/25 13:52:34;;;;;;;4.65;2.40;;;;;;;;;;4944711;28;20058;-50
2023/02/25 13:55:03;;;;;;;8.18;3.03;;;;;;;;;;4963350;28;20038;-52
2023/02/25 13:57:28;;;;;;;3.78;2.13;;;;;;;;;;4956082;28;20141;-55
2023/02/25 14:00:01;;;;;;;6.07;2.22;;;;;;;;;;4957959;28;20377;-49
2023/02/25 14:02:32;;;;;;;9.20;3.25;;;;;;;;;;4973306;28;20046;-56
2023/02/25 14:05:02;;;;;;;5.07;2.22;;;;;;;;;;4958362;28;20054;-48
2023/02/25 14:07:43;;;;;;;7.22;2.30;;;;;;;;;;4956659;28;20041;-50
2023/02/25 14:10:17;;;;;;;5.10;2.10;;;;;;;;;;4961826;28;20144;-50
2023/02/25 14:12:45;;;;;;;5.43;2.00;;;;;;;;;;4955577;28;20113;-52
2023/02/25 14:15:23;;;;;;;4.78;2.28;;;;;;;;;;4957105;28;20034;-49
2023/02/25 14:18:01;;;;;;;5.55;2.50;;;;;;;;;;4962973;28;20534;-54
2023/02/25 14:20:48;;;;;;;5.70;2.10;;;;;;;;;;4963198;28;20488;-52
2023/02/25 14:23:23;;;;;;;9.13;2.40;;;;;;;;;;4966765;28;20060;-49
2023/02/25 14:26:04;;;;;;;5.38;2.05;;;;;;;;;;4963070;28;20119;-50
2023/02/25 14:28:36;;;;;;;5.88;2.40;;;;;;;;;;4962155;28;20034;-54
2023/02/25 14:31:14;;;;;;;5.05;2.30;;;;;;;;;;4968118;28;20035;-51
2023/02/25 14:33:39;;;;;;;;;;;;;;;;;;4961396;28;20515;-54
2023/02/25 14:36:04;;;;;;;7.70;2.75;;;;;;;;;;4962483;28;20419;-51
2023/02/25 14:38:32;;;;;;;7.13;2.42;;;;;;;;;;4967687;28;20031;-53
2023/02/25 14:41:08;;;;;;;7.85;2.45;;;;;;;;;;4958570;28;20034;-51
2023/02/25 14:43:34;;;;;;;5.85;2.70;;;;;;;;;;4965800;28;20058;-48
2023/02/25 14:46:02;;;;;;;4.57;2.10;;;;;;;;;;4960823;28;20089;-52
2023/02/25 14:48:39;;;;;;;5.40;2.20;;;;;;;;;;4955915;28;20035;-56
2023/02/25 14:51:17;;;;;;;7.70;2.58;;;;;;;;;;4952417;28;20523;-54